createdAt,value
2017-07-30T00:00:33.003Z,3.30
2017-07-30T00:03:00.494Z,4.13
2017-07-30T00:05:27.974Z,4.47
2017-07-30T00:07:56.246Z,4.37
2017-07-30T00:10:24.476Z,5.30
2017-07-30T00:12:51.969Z,4.20
2017-07-30T00:15:20.216Z,3.80
2017-07-30T00:17:47.804Z,3.97
2017-07-30T00:20:16.064Z,4.40
2017-07-30T00:22:43.557Z,4.70
2017-07-30T00:25:11.045Z,4.20
2017-07-30T00:27:38.541Z,4.80
2017-07-30T00:30:06.023Z,4.93
2017-07-30T00:32:34.260Z,3.80
2017-07-30T00:35:01.752Z,5.43
2017-07-30T00:37:30.001Z,5.07
2017-07-30T00:39:57.508Z,4.73
2017-07-30T00:42:24.988Z,4.53
2017-07-30T00:44:52.464Z,5.10
2017-07-30T00:47:19.964Z,4.60
2017-07-30T00:49:48.208Z,3.63
2017-07-30T00:52:15.709Z,4.87
2017-07-30T00:54:43.180Z,5.40
2017-07-30T00:57:10.684Z,4.70
2017-07-30T00:59:38.154Z,4.57
2017-07-30T01:02:05.624Z,4.10
2017-07-30T01:04:33.118Z,4.33
2017-07-30T01:07:00.592Z,4.67
2017-07-30T01:09:28.085Z,4.80
2017-07-30T01:11:55.557Z,3.87
2017-07-30T01:14:23.820Z,3.50
2017-07-30T01:16:51.312Z,4.30
2017-07-30T01:19:18.801Z,4.57
2017-07-30T01:21:46.283Z,4.40
2017-07-30T01:24:13.760Z,5.30
2017-07-30T01:26:41.251Z,4.70
2017-07-30T01:29:08.721Z,5.10
2017-07-30T01:31:36.199Z,4.80
2017-07-30T01:34:03.697Z,4.47
2017-07-30T01:36:31.932Z,4.03
2017-07-30T01:38:59.412Z,4.97
2017-07-30T01:41:26.908Z,4.57
2017-07-30T01:43:54.385Z,4.33
2017-07-30T01:46:21.884Z,4.57
2017-07-30T01:48:49.356Z,4.40
2017-07-30T01:51:16.828Z,3.87
2017-07-30T01:53:45.093Z,4.10
2017-07-30T01:56:12.583Z,5.70
2017-07-30T01:58:40.071Z,5.13
2017-07-30T02:01:07.572Z,4.40
2017-07-30T02:03:35.061Z,4.20
2017-07-30T02:06:02.541Z,3.93
2017-07-30T02:08:30.012Z,4.90
2017-07-30T02:10:57.519Z,4.37
2017-07-30T02:13:25.764Z,4.80
2017-07-30T02:15:53.243Z,4.63
2017-07-30T02:18:21.498Z,4.10
2017-07-30T02:20:48.969Z,3.97
2017-07-30T02:23:16.481Z,4.77
2017-07-30T02:25:43.956Z,4.43
2017-07-30T02:28:11.498Z,3.90
2017-07-30T02:30:38.971Z,5.00
2017-07-30T02:33:06.465Z,4.00
2017-07-30T02:35:34.704Z,5.20
2017-07-30T02:38:02.201Z,5.13
2017-07-30T02:40:29.672Z,4.33
2017-07-30T02:42:57.928Z,3.80
2017-07-30T02:45:25.405Z,4.30
2017-07-30T02:47:53.652Z,4.83
2017-07-30T02:50:21.177Z,4.30
2017-07-30T02:52:48.643Z,4.03
2017-07-30T02:55:16.129Z,4.70
2017-07-30T02:57:43.635Z,4.20
2017-07-30T03:00:11.125Z,3.80
2017-07-30T03:02:38.608Z,4.20
2017-07-30T03:05:06.124Z,4.90
2017-07-30T03:07:33.597Z,4.43
2017-07-30T03:10:01.098Z,3.93
2017-07-30T03:12:28.566Z,4.63
2017-07-30T03:14:56.829Z,4.10
2017-07-30T03:17:25.088Z,5.03
2017-07-30T03:19:52.568Z,5.03
2017-07-30T03:22:20.823Z,4.00
2017-07-30T03:24:48.315Z,4.40
2017-07-30T03:27:15.816Z,4.30
2017-07-30T03:29:43.324Z,4.10
2017-07-30T03:32:11.573Z,4.00
2017-07-30T03:34:39.998Z,4.20
2017-07-30T03:37:07.485Z,4.10
2017-07-30T03:39:34.951Z,4.30
2017-07-30T03:42:02.445Z,4.40
2017-07-30T03:44:30.683Z,4.03
2017-07-30T03:46:58.168Z,4.07
2017-07-30T03:49:25.639Z,4.23
2017-07-30T03:51:53.896Z,4.07
2017-07-30T03:54:21.359Z,3.40
2017-07-30T03:56:48.839Z,4.07
2017-07-30T03:59:17.112Z,3.93
2017-07-30T04:01:45.360Z,4.73
2017-07-30T04:04:12.863Z,3.50
2017-07-30T04:06:40.344Z,4.13
2017-07-30T04:09:07.825Z,3.93
2017-07-30T04:11:35.312Z,3.70
2017-07-30T04:14:03.576Z,3.53
2017-07-30T04:16:31.049Z,3.87
2017-07-30T04:18:59.288Z,3.63
2017-07-30T04:21:26.795Z,3.87
2017-07-30T04:23:55.033Z,3.70
2017-07-30T04:26:22.542Z,4.37
2017-07-30T04:28:50.032Z,3.90
2017-07-30T04:31:17.501Z,4.63
2017-07-30T04:33:44.989Z,3.90
2017-07-30T04:36:13.233Z,3.60
2017-07-30T04:38:40.724Z,3.90
2017-07-30T04:41:08.976Z,3.90
2017-07-30T04:43:36.472Z,4.47
2017-07-30T04:46:04.710Z,4.23
2017-07-30T04:48:32.201Z,4.00
2017-07-30T04:51:00.468Z,4.10
2017-07-30T04:53:28.713Z,4.10
2017-07-30T04:55:56.217Z,3.60
2017-07-30T04:58:24.480Z,4.27
2017-07-30T05:00:52.720Z,4.47
2017-07-30T05:03:20.198Z,4.07
2017-07-30T05:05:47.694Z,4.00
2017-07-30T05:08:15.162Z,4.30
2017-07-30T05:10:42.665Z,3.60
2017-07-30T05:13:10.152Z,4.53
2017-07-30T05:15:38.401Z,4.30
2017-07-30T05:18:05.897Z,4.20
2017-07-30T05:20:33.374Z,3.37
2017-07-30T05:23:00.864Z,3.90
2017-07-30T05:25:28.340Z,3.90
2017-07-30T05:27:55.816Z,3.93
2017-07-30T05:30:24.079Z,4.07
2017-07-30T05:32:51.599Z,3.63
2017-07-30T05:35:19.075Z,4.67
2017-07-30T05:37:46.579Z,3.80
2017-07-30T05:40:14.829Z,3.40
2017-07-30T05:42:42.305Z,3.23
2017-07-30T05:45:10.565Z,3.37
2017-07-30T05:47:38.043Z,4.13
2017-07-30T05:50:06.359Z,3.17
2017-07-30T05:52:33.842Z,2.70
2017-07-30T05:55:01.355Z,3.43
2017-07-30T05:57:28.846Z,4.20
2017-07-30T05:59:56.362Z,3.43
2017-07-30T06:02:24.617Z,3.77
2017-07-30T06:04:52.089Z,3.60
2017-07-30T06:07:20.343Z,3.10
2017-07-30T06:09:47.836Z,3.10
2017-07-30T06:12:15.304Z,3.40
2017-07-30T06:14:42.760Z,3.90
2017-07-30T06:17:10.338Z,3.03
2017-07-30T06:19:37.808Z,3.03
2017-07-30T06:22:05.307Z,2.87
2017-07-30T06:24:32.778Z,3.20
2017-07-30T06:27:01.034Z,3.40
2017-07-30T06:29:28.507Z,2.80
2017-07-30T06:31:56.759Z,2.70
2017-07-30T06:34:24.256Z,2.50
2017-07-30T06:36:51.746Z,2.53
2017-07-30T06:39:19.236Z,2.60
2017-07-30T06:41:46.697Z,3.03
2017-07-30T06:44:14.182Z,3.37
2017-07-30T06:46:42.437Z,2.90
2017-07-30T06:49:09.909Z,2.80
2017-07-30T06:51:38.185Z,2.90
2017-07-30T06:54:06.423Z,3.27
2017-07-30T06:56:33.903Z,2.70
2017-07-30T06:59:01.413Z,2.40
2017-07-30T07:01:28.876Z,2.13
2017-07-30T07:03:56.432Z,2.73
2017-07-30T07:06:23.924Z,2.80
2017-07-30T07:08:51.405Z,2.90
2017-07-30T07:11:18.860Z,2.67
2017-07-30T07:13:47.132Z,2.00
2017-07-30T07:16:14.773Z,2.17
2017-07-30T07:18:42.313Z,2.30
2017-07-30T07:21:09.796Z,2.57
2017-07-30T07:23:37.284Z,2.37
2017-07-30T07:26:05.528Z,2.80
2017-07-30T07:28:33.011Z,2.57
2017-07-30T07:31:01.260Z,2.33
2017-07-30T07:33:28.764Z,2.70
2017-07-30T07:35:56.349Z,2.93
2017-07-30T07:38:23.852Z,2.10
2017-07-30T07:40:51.468Z,2.40
2017-07-30T07:43:18.936Z,2.60
2017-07-30T07:45:46.491Z,2.23
2017-07-30T07:48:13.976Z,2.57
2017-07-30T07:50:41.476Z,2.53
2017-07-30T07:53:09.717Z,2.80
2017-07-30T07:55:37.211Z,2.93
2017-07-30T07:58:05.461Z,2.40
2017-07-30T08:00:32.942Z,2.53
2017-07-30T08:03:01.177Z,2.87
2017-07-30T08:05:28.644Z,2.70
2017-07-30T08:07:56.141Z,2.57
2017-07-30T08:10:23.631Z,2.60
2017-07-30T08:12:51.108Z,2.27
2017-07-30T08:15:18.580Z,2.30
2017-07-30T08:17:46.069Z,2.70
2017-07-30T08:20:13.543Z,2.00
2017-07-30T08:22:41.004Z,1.80
2017-07-30T08:25:08.484Z,2.40
2017-07-30T08:27:35.952Z,2.40
2017-07-30T08:30:03.448Z,2.13
2017-07-30T08:32:31.680Z,2.67
2017-07-30T08:34:59.144Z,2.40
2017-07-30T08:37:26.637Z,2.40
2017-07-30T08:39:54.872Z,2.23
2017-07-30T08:42:22.373Z,2.17
2017-07-30T08:44:50.617Z,1.97
2017-07-30T08:47:18.100Z,2.17
2017-07-30T08:49:45.584Z,2.40
2017-07-30T08:52:13.059Z,2.10
2017-07-30T08:54:40.548Z,2.20
2017-07-30T08:57:08.045Z,2.20
2017-07-30T08:59:36.365Z,1.83
2017-07-30T09:02:03.828Z,2.27
2017-07-30T09:04:31.337Z,2.10
2017-07-30T09:06:59.630Z,1.93
2017-07-30T09:09:27.103Z,2.00
2017-07-30T09:11:54.577Z,2.00
2017-07-30T09:14:22.081Z,1.93
2017-07-30T09:16:49.569Z,1.80
2017-07-30T09:19:17.044Z,2.53
2017-07-30T09:21:44.508Z,2.73
2017-07-30T09:24:12.003Z,2.37
2017-07-30T09:26:39.488Z,2.47
2017-07-30T09:29:07.732Z,2.10
2017-07-30T09:31:35.223Z,2.00
2017-07-30T09:34:02.709Z,2.03
2017-07-30T09:36:30.204Z,4.27
2017-07-30T09:38:57.693Z,2.37
2017-07-30T09:41:25.938Z,2.97
2017-07-30T09:43:53.402Z,2.40
2017-07-30T09:46:20.885Z,2.43
2017-07-30T09:48:49.132Z,2.53
2017-07-30T09:51:16.644Z,1.90
2017-07-30T09:53:44.116Z,2.10
2017-07-30T09:56:11.602Z,1.83
2017-07-30T09:58:39.092Z,2.63
2017-07-30T10:01:07.336Z,2.87
2017-07-30T10:03:34.831Z,1.97
2017-07-30T10:06:03.075Z,2.80
2017-07-30T10:08:30.549Z,3.80
2017-07-30T10:10:58.825Z,2.83
2017-07-30T10:13:27.076Z,2.17
2017-07-30T10:15:54.565Z,2.07
2017-07-30T10:18:22.805Z,2.37
2017-07-30T10:20:50.304Z,2.00
2017-07-30T10:23:18.560Z,2.33
2017-07-30T10:25:46.053Z,2.63
2017-07-30T10:28:13.540Z,2.00
2017-07-30T10:30:41.024Z,2.00
2017-07-30T10:33:08.529Z,2.17
2017-07-30T10:35:35.997Z,1.90
2017-07-30T10:38:03.467Z,2.00
2017-07-30T10:40:30.956Z,2.30
2017-07-30T10:42:58.425Z,1.70
2017-07-30T10:45:25.930Z,1.80
2017-07-30T10:47:53.397Z,2.57
2017-07-30T10:50:20.887Z,2.10
2017-07-30T10:52:48.373Z,2.43
2017-07-30T10:55:16.657Z,2.00
2017-07-30T10:57:44.145Z,2.20
2017-07-30T11:00:11.629Z,2.97
2017-07-30T11:02:39.125Z,2.03
2017-07-30T11:05:07.368Z,2.07
2017-07-30T11:07:34.840Z,2.10
2017-07-30T11:10:02.349Z,3.33
2017-07-30T11:12:29.837Z,2.40
2017-07-30T11:14:57.303Z,1.90
2017-07-30T11:17:24.788Z,2.30
2017-07-30T11:19:53.049Z,2.60
2017-07-30T11:22:20.512Z,2.27
2017-07-30T11:24:47.988Z,2.50
2017-07-30T11:27:16.254Z,2.30
2017-07-30T11:29:44.475Z,2.33
2017-07-30T11:32:11.971Z,2.00
2017-07-30T11:34:39.824Z,2.13
2017-07-30T11:37:07.724Z,2.23
2017-07-30T11:39:35.430Z,2.30
2017-07-30T11:42:03.127Z,2.70
2017-07-30T11:44:32.939Z,2.73
2017-07-30T11:47:02.640Z,1.97
2017-07-30T11:49:31.847Z,2.80
2017-07-30T11:52:00.427Z,2.23
2017-07-30T11:54:28.083Z,2.30
2017-07-30T11:56:55.859Z,2.57
2017-07-30T11:59:24.964Z,3.10
2017-07-30T12:01:53.213Z,2.67
2017-07-30T12:04:20.686Z,2.30
2017-07-30T12:06:48.176Z,2.27
2017-07-30T12:09:16.423Z,2.93
2017-07-30T12:11:43.912Z,2.13
2017-07-30T12:14:12.147Z,2.33
2017-07-30T12:16:39.614Z,3.03
2017-07-30T12:19:07.236Z,2.90
2017-07-30T12:21:36.150Z,2.90
2017-07-30T12:24:05.388Z,2.60
2017-07-30T12:26:33.830Z,2.50
2017-07-30T12:29:02.530Z,2.70
2017-07-30T12:31:32.456Z,2.70
2017-07-30T12:34:00.669Z,2.67
2017-07-30T12:36:28.171Z,2.07
2017-07-30T12:38:55.904Z,2.70
2017-07-30T12:41:24.845Z,2.30
2017-07-30T12:43:53.001Z,3.10
2017-07-30T12:46:22.553Z,2.40
2017-07-30T12:48:52.355Z,3.30
2017-07-30T12:51:21.966Z,3.23
2017-07-30T12:53:50.861Z,2.37
2017-07-30T12:56:19.094Z,3.00
2017-07-30T12:58:47.439Z,2.70
2017-07-30T13:01:17.326Z,2.30
2017-07-30T13:03:46.188Z,2.57
2017-07-30T13:06:14.562Z,2.30
2017-07-30T13:08:42.441Z,3.10
2017-07-30T13:11:11.269Z,2.30
2017-07-30T13:13:40.071Z,2.63
2017-07-30T13:16:09.826Z,2.53
2017-07-30T13:18:38.442Z,3.50
2017-07-30T13:21:08.394Z,2.40
2017-07-30T13:23:36.699Z,2.57
2017-07-30T13:26:04.645Z,2.00
2017-07-30T13:28:32.659Z,2.50
2017-07-30T13:31:00.345Z,2.10
2017-07-30T13:33:28.926Z,2.73
2017-07-30T13:35:58.197Z,2.30
2017-07-30T13:38:26.034Z,2.20
2017-07-30T13:40:53.818Z,3.07
2017-07-30T13:43:21.438Z,2.63
2017-07-30T13:45:49.004Z,2.23
2017-07-30T13:48:16.635Z,2.40
2017-07-30T13:50:44.923Z,2.77
2017-07-30T13:53:13.203Z,2.23
2017-07-30T13:55:40.688Z,2.70
2017-07-30T13:58:08.584Z,2.80
2017-07-30T14:00:36.162Z,2.50
2017-07-30T14:03:03.840Z,2.67
2017-07-30T14:05:32.129Z,2.70
2017-07-30T14:08:00.458Z,2.43
2017-07-30T14:10:28.100Z,2.97
2017-07-30T14:12:55.653Z,2.53
2017-07-30T14:15:23.321Z,2.10
2017-07-30T14:17:50.940Z,2.63
2017-07-30T14:20:19.499Z,2.93
2017-07-30T14:22:47.330Z,2.83
2017-07-30T14:25:14.866Z,2.67
2017-07-30T14:27:42.376Z,2.70
2017-07-30T14:30:09.940Z,2.30
2017-07-30T14:32:37.643Z,2.70
2017-07-30T14:35:05.280Z,3.10
2017-07-30T14:37:33.639Z,2.97
2017-07-30T14:40:01.953Z,2.83
2017-07-30T14:42:31.404Z,2.70
2017-07-30T14:45:00.151Z,2.60
2017-07-30T14:47:29.269Z,2.13
2017-07-30T14:49:56.838Z,2.20
2017-07-30T14:52:24.376Z,2.23
2017-07-30T14:54:52.191Z,2.60
2017-07-30T14:57:19.699Z,3.00
2017-07-30T14:59:47.348Z,2.13
2017-07-30T15:02:15.885Z,2.03
2017-07-30T15:04:43.362Z,2.70
2017-07-30T15:07:11.222Z,2.40
2017-07-30T15:09:38.709Z,2.30
2017-07-30T15:12:06.983Z,2.40
2017-07-30T15:14:35.309Z,2.87
2017-07-30T15:17:02.824Z,2.80
2017-07-30T15:19:31.134Z,2.63
2017-07-30T15:21:58.694Z,2.70
2017-07-30T15:24:26.281Z,2.80
2017-07-30T15:26:53.810Z,2.10
2017-07-30T15:29:21.450Z,2.60
2017-07-30T15:31:50.025Z,2.60
2017-07-30T15:34:19.092Z,2.60
2017-07-30T15:36:46.886Z,3.10
2017-07-30T15:39:15.275Z,3.13
2017-07-30T15:41:43.602Z,2.37
2017-07-30T15:44:11.097Z,3.17
2017-07-30T15:46:40.939Z,2.87
2017-07-30T15:49:08.580Z,2.83
2017-07-30T15:51:36.817Z,2.50
2017-07-30T15:54:04.326Z,2.50
2017-07-30T15:56:31.909Z,2.80
2017-07-30T15:58:59.409Z,2.77
2017-07-30T16:01:26.890Z,2.87
2017-07-30T16:03:55.143Z,3.30
2017-07-30T16:06:22.633Z,2.67
2017-07-30T16:08:50.136Z,2.73
2017-07-30T16:11:17.630Z,3.17
2017-07-30T16:13:45.116Z,3.30
2017-07-30T16:16:12.589Z,2.97
2017-07-30T16:18:40.080Z,2.93
2017-07-30T16:21:07.563Z,2.50
2017-07-30T16:23:35.833Z,3.23
2017-07-30T16:26:03.319Z,2.50
2017-07-30T16:28:31.557Z,3.20
2017-07-30T16:33:36.534Z,3.10
2017-07-30T16:36:04.801Z,3.00
2017-07-30T16:38:32.288Z,2.83
2017-07-30T16:40:59.967Z,3.27
2017-07-30T16:43:27.440Z,3.17
2017-07-30T16:45:54.909Z,3.00
2017-07-30T16:48:22.411Z,3.00
2017-07-30T16:50:50.648Z,2.80
2017-07-30T16:53:18.128Z,2.87
2017-07-30T16:55:46.389Z,3.13
2017-07-30T16:58:13.864Z,3.20
2017-07-30T17:00:42.128Z,2.40
2017-07-30T17:03:09.619Z,3.03
2017-07-30T17:05:37.126Z,3.07
2017-07-30T17:08:04.895Z,3.13
2017-07-30T17:10:32.379Z,2.67
2017-07-30T17:13:00.612Z,3.43
2017-07-30T17:15:28.105Z,2.87
2017-07-30T17:17:55.592Z,2.50
2017-07-30T17:20:23.084Z,2.77
2017-07-30T17:22:50.560Z,3.20
2017-07-30T17:25:18.048Z,3.70
2017-07-30T17:27:46.292Z,2.63
2017-07-30T17:30:13.764Z,3.20
2017-07-30T17:32:41.252Z,2.80
2017-07-30T17:35:09.495Z,3.10
2017-07-30T17:37:36.982Z,3.00
2017-07-30T17:40:05.208Z,3.20
2017-07-30T17:42:32.693Z,3.30
2017-07-30T17:45:00.164Z,3.00
2017-07-30T17:47:28.591Z,3.23
2017-07-30T17:49:56.056Z,3.07
2017-07-30T17:52:23.517Z,3.00
2017-07-30T17:54:51.012Z,2.87
2017-07-30T17:57:18.510Z,3.20
2017-07-30T17:59:45.979Z,3.37
2017-07-30T18:02:13.489Z,3.50
2017-07-30T18:04:40.952Z,3.40
2017-07-30T18:07:08.445Z,3.40
2017-07-30T18:09:35.941Z,2.80
2017-07-30T18:12:03.432Z,3.57
2017-07-30T18:14:31.683Z,3.87
2017-07-30T18:16:59.161Z,3.37
2017-07-30T18:19:26.642Z,3.10
2017-07-30T18:21:54.138Z,3.00
2017-07-30T18:24:21.624Z,3.20
2017-07-30T18:26:49.105Z,3.50
2017-07-30T18:29:17.370Z,3.93
2017-07-30T18:31:45.113Z,3.07
2017-07-30T18:34:12.597Z,3.37
2017-07-30T18:36:40.111Z,3.10
2017-07-30T18:39:08.831Z,2.83
2017-07-30T18:41:36.314Z,2.53
2017-07-30T18:44:04.584Z,2.67
2017-07-30T18:46:32.838Z,2.53
2017-07-30T18:49:00.327Z,2.40
2017-07-30T18:51:27.821Z,2.40
2017-07-30T18:53:55.296Z,2.47
2017-07-30T18:56:22.801Z,2.40
2017-07-30T18:58:51.105Z,2.60
2017-07-30T19:01:18.579Z,2.50
2017-07-30T19:03:46.055Z,2.20
2017-07-30T19:06:13.550Z,2.53
2017-07-30T19:08:41.802Z,1.93
2017-07-30T19:11:09.285Z,2.40
2017-07-30T19:13:37.576Z,2.37
2017-07-30T19:16:05.088Z,2.87
2017-07-30T19:18:32.557Z,2.37
2017-07-30T19:21:00.057Z,2.73
2017-07-30T19:23:27.541Z,3.33
2017-07-30T19:25:55.025Z,3.13
2017-07-30T19:28:22.509Z,3.67
2017-07-30T19:30:50.772Z,3.63
2017-07-30T19:33:18.269Z,4.07
2017-07-30T19:35:45.837Z,3.17
2017-07-30T19:38:13.330Z,3.53
2017-07-30T19:40:40.820Z,4.20
2017-07-30T19:43:09.115Z,4.17
2017-07-30T19:45:36.670Z,4.20
2017-07-30T19:48:04.191Z,3.60
2017-07-30T19:50:31.705Z,3.70
2017-07-30T19:52:59.192Z,3.80
2017-07-30T19:55:26.701Z,3.87
2017-07-30T19:57:54.196Z,3.50
2017-07-30T20:00:21.676Z,3.23
2017-07-30T20:02:49.152Z,3.93
2017-07-30T20:05:17.402Z,3.77
2017-07-30T20:07:44.903Z,3.40
2017-07-30T20:10:13.132Z,3.47
2017-07-30T20:12:40.624Z,3.60
2017-07-30T20:15:08.084Z,3.20
2017-07-30T20:17:35.569Z,3.30
2017-07-30T20:20:03.076Z,2.73
2017-07-30T20:22:30.544Z,3.67
2017-07-30T20:24:58.011Z,3.10
2017-07-30T20:27:25.497Z,2.90
2017-07-30T20:29:53.001Z,3.30
2017-07-30T20:32:20.533Z,2.10
2017-07-30T20:34:48.036Z,2.97
2017-07-30T20:37:15.523Z,2.73
2017-07-30T20:39:43.781Z,2.17
2017-07-30T20:42:11.246Z,2.20
2017-07-30T20:44:39.508Z,2.60
2017-07-30T20:47:07.028Z,2.20
2017-07-30T20:49:34.508Z,2.40
2017-07-30T20:52:02.075Z,2.80
2017-07-30T20:54:29.540Z,3.40
2017-07-30T20:56:57.217Z,2.90
2017-07-30T20:59:25.458Z,2.83
2017-07-30T21:01:52.937Z,3.07
2017-07-30T21:04:20.433Z,3.50
2017-07-30T21:06:48.010Z,4.20
2017-07-30T21:09:15.504Z,3.17
2017-07-30T21:11:42.979Z,4.32
2017-07-30T21:14:10.469Z,3.47
2017-07-30T21:16:37.953Z,3.60
2017-07-30T21:19:05.433Z,3.63
2017-07-30T21:21:32.929Z,3.83
2017-07-30T21:24:00.426Z,4.07
2017-07-30T21:26:27.924Z,3.73
2017-07-30T21:28:55.397Z,3.73
2017-07-30T21:31:23.645Z,4.10
2017-07-30T21:33:51.132Z,5.30
2017-07-30T21:36:19.372Z,4.67
2017-07-30T21:38:46.869Z,4.47
2017-07-30T21:41:15.140Z,4.20
2017-07-30T21:43:43.392Z,3.87
2017-07-30T21:46:10.858Z,4.00
2017-07-30T21:48:38.344Z,3.70
2017-07-30T21:51:05.807Z,3.20
2017-07-30T21:53:33.305Z,3.80
2017-07-30T21:56:00.805Z,3.50
2017-07-30T21:58:29.036Z,3.37
2017-07-30T22:00:56.533Z,4.60
2017-07-30T22:03:24.773Z,4.00
2017-07-30T22:05:52.284Z,3.40
2017-07-30T22:08:19.760Z,3.13
2017-07-30T22:10:47.252Z,3.00
2017-07-30T22:13:14.736Z,3.23
2017-07-30T22:15:42.251Z,2.80
2017-07-30T22:18:09.728Z,3.00
2017-07-30T22:20:37.224Z,3.40
2017-07-30T22:23:05.469Z,3.30
2017-07-30T22:25:32.940Z,3.50
2017-07-30T22:28:00.440Z,3.30
2017-07-30T22:30:27.924Z,3.77
2017-07-30T22:32:55.412Z,4.23
2017-07-30T22:35:22.894Z,3.27
2017-07-30T22:37:51.137Z,3.30
2017-07-30T22:40:18.621Z,3.47
2017-07-30T22:42:46.872Z,3.27
2017-07-30T22:45:14.337Z,4.10
2017-07-30T22:47:41.842Z,3.60
2017-07-30T22:50:09.325Z,4.27
2017-07-30T22:52:36.827Z,4.10
2017-07-30T22:55:05.073Z,3.90
2017-07-30T22:57:32.553Z,3.43
2017-07-30T23:00:00.040Z,4.23
2017-07-30T23:02:27.524Z,3.67
2017-07-30T23:04:55.017Z,3.90
2017-07-30T23:07:22.545Z,4.73
2017-07-30T23:09:50.017Z,3.33
2017-07-30T23:12:17.513Z,3.63
2017-07-30T23:14:45.754Z,3.80
2017-07-30T23:17:13.231Z,3.60
2017-07-30T23:19:40.727Z,4.83
2017-07-30T23:22:08.208Z,3.50
2017-07-30T23:24:35.702Z,3.57
2017-07-30T23:27:03.172Z,3.20
2017-07-30T23:29:30.653Z,3.87
2017-07-30T23:31:58.911Z,4.20
2017-07-30T23:34:27.158Z,3.40
2017-07-30T23:36:54.657Z,4.20
2017-07-30T23:39:22.892Z,4.13
2017-07-30T23:41:50.378Z,3.93
2017-07-30T23:44:17.865Z,3.73
2017-07-30T23:46:45.349Z,3.40
2017-07-30T23:49:12.868Z,3.73
2017-07-30T23:51:41.110Z,4.20
2017-07-30T23:54:08.580Z,3.87
2017-07-30T23:56:36.078Z,4.17
2017-07-30T23:59:03.560Z,3.83
